sensor_id;sensor_type;location;lat;lon;timestamp;P1;durP1;ratioP1;P2;durP2;ratioP2
78856;SDS011;68207;50.078;19.936;2023-06-26T00:00:39;8.90;;;6.40;;
78856;SDS011;68207;50.078;19.936;2023-06-26T00:03:05;8.80;;;6.20;;
78856;SDS011;68207;50.078;19.936;2023-06-26T00:05:30;9.20;;;6.30;;
78856;SDS011;68207;50.078;19.936;2023-06-26T00:07:55;9.30;;;6.10;;
78856;SDS011;68207;50.078;19.936;2023-06-26T00:12:46;8.40;;;5.70;;
78856;SDS011;68207;50.078;19.936;2023-06-26T00:15:12;10.10;;;6.00;;
78856;SDS011;68207;50.078;19.936;2023-06-26T00:17:37;8.90;;;5.80;;
78856;SDS011;68207;50.078;19.936;2023-06-26T00:20:03;8.20;;;6.50;;
78856;SDS011;68207;50.078;19.936;2023-06-26T00:22:30;7.70;;;6.10;;
78856;SDS011;68207;50.078;19.936;2023-06-26T00:24:55;9.00;;;6.10;;
78856;SDS011;68207;50.078;19.936;2023-06-26T00:27:20;8.60;;;6.50;;
78856;SDS011;68207;50.078;19.936;2023-06-26T00:29:45;9.60;;;6.30;;
78856;SDS011;68207;50.078;19.936;2023-06-26T00:32:11;9.30;;;6.60;;
78856;SDS011;68207;50.078;19.936;2023-06-26T00:34:36;7.80;;;5.40;;
78856;SDS011;68207;50.078;19.936;2023-06-26T00:37:01;7.00;;;5.90;;
78856;SDS011;68207;50.078;19.936;2023-06-26T00:39:27;8.70;;;6.10;;
78856;SDS011;68207;50.078;19.936;2023-06-26T00:41:52;9.70;;;6.20;;
78856;SDS011;68207;50.078;19.936;2023-06-26T00:44:20;8.70;;;6.30;;
78856;SDS011;68207;50.078;19.936;2023-06-26T00:46:45;11.10;;;6.20;;
78856;SDS011;68207;50.078;19.936;2023-06-26T00:49:11;13.80;;;6.40;;
78856;SDS011;68207;50.078;19.936;2023-06-26T00:51:36;11.80;;;6.30;;
78856;SDS011;68207;50.078;19.936;2023-06-26T00:54:01;11.50;;;6.70;;
78856;SDS011;68207;50.078;19.936;2023-06-26T00:56:26;8.90;;;6.20;;
78856;SDS011;68207;50.078;19.936;2023-06-26T00:58:52;8.90;;;6.30;;
78856;SDS011;68207;50.078;19.936;2023-06-26T01:01:17;9.70;;;6.30;;
78856;SDS011;68207;50.078;19.936;2023-06-26T01:03:48;8.80;;;6.50;;
78856;SDS011;68207;50.078;19.936;2023-06-26T01:06:16;7.60;;;6.00;;
78856;SDS011;68207;50.078;19.936;2023-06-26T01:08:42;10.80;;;6.10;;
78856;SDS011;68207;50.078;19.936;2023-06-26T01:11:08;9.10;;;6.40;;
78856;SDS011;68207;50.078;19.936;2023-06-26T01:13:33;9.60;;;6.40;;
78856;SDS011;68207;50.078;19.936;2023-06-26T01:15:59;10.10;;;7.40;;
78856;SDS011;68207;50.078;19.936;2023-06-26T01:18:25;11.50;;;7.00;;
78856;SDS011;68207;50.078;19.936;2023-06-26T01:20:51;11.50;;;7.00;;
78856;SDS011;68207;50.078;19.936;2023-06-26T01:28:12;12.30;;;6.70;;
78856;SDS011;68207;50.078;19.936;2023-06-26T01:30:41;10.40;;;7.00;;
78856;SDS011;68207;50.078;19.936;2023-06-26T01:33:06;10.70;;;7.00;;
78856;SDS011;68207;50.078;19.936;2023-06-26T01:35:31;11.30;;;6.90;;
78856;SDS011;68207;50.078;19.936;2023-06-26T01:38:16;10.30;;;6.80;;
78856;SDS011;68207;50.078;19.936;2023-06-26T01:40:42;8.40;;;6.60;;
78856;SDS011;68207;50.078;19.936;2023-06-26T01:43:09;13.00;;;7.30;;
78856;SDS011;68207;50.078;19.936;2023-06-26T01:45:36;11.80;;;7.30;;
78856;SDS011;68207;50.078;19.936;2023-06-26T01:48:02;9.30;;;6.90;;
78856;SDS011;68207;50.078;19.936;2023-06-26T01:50:31;10.10;;;6.70;;
78856;SDS011;68207;50.078;19.936;2023-06-26T01:52:59;9.20;;;6.70;;
78856;SDS011;68207;50.078;19.936;2023-06-26T01:55:46;9.30;;;7.10;;
78856;SDS011;68207;50.078;19.936;2023-06-26T01:58:12;11.70;;;7.00;;
78856;SDS011;68207;50.078;19.936;2023-06-26T02:00:38;13.20;;;7.70;;
78856;SDS011;68207;50.078;19.936;2023-06-26T02:03:03;9.00;;;6.80;;
78856;SDS011;68207;50.078;19.936;2023-06-26T02:07:55;11.30;;;7.70;;
78856;SDS011;68207;50.078;19.936;2023-06-26T02:10:21;9.60;;;7.50;;
78856;SDS011;68207;50.078;19.936;2023-06-26T02:12:46;9.00;;;7.00;;
78856;SDS011;68207;50.078;19.936;2023-06-26T02:15:11;10.10;;;7.20;;
78856;SDS011;68207;50.078;19.936;2023-06-26T02:17:36;9.20;;;7.00;;
78856;SDS011;68207;50.078;19.936;2023-06-26T02:20:02;9.20;;;7.10;;
78856;SDS011;68207;50.078;19.936;2023-06-26T02:22:27;10.70;;;7.10;;
78856;SDS011;68207;50.078;19.936;2023-06-26T02:27:18;9.90;;;7.40;;
78856;SDS011;68207;50.078;19.936;2023-06-26T02:29:43;11.60;;;7.00;;
78856;SDS011;68207;50.078;19.936;2023-06-26T02:32:09;8.80;;;6.30;;
78856;SDS011;68207;50.078;19.936;2023-06-26T02:34:34;9.80;;;7.00;;
78856;SDS011;68207;50.078;19.936;2023-06-26T02:37:00;12.50;;;7.30;;
78856;SDS011;68207;50.078;19.936;2023-06-26T02:39:25;9.50;;;6.90;;
78856;SDS011;68207;50.078;19.936;2023-06-26T02:41:50;11.80;;;7.20;;
78856;SDS011;68207;50.078;19.936;2023-06-26T02:44:16;9.50;;;7.30;;
78856;SDS011;68207;50.078;19.936;2023-06-26T02:46:41;10.40;;;6.90;;
78856;SDS011;68207;50.078;19.936;2023-06-26T02:49:06;10.10;;;7.10;;
78856;SDS011;68207;50.078;19.936;2023-06-26T02:51:32;11.70;;;7.20;;
78856;SDS011;68207;50.078;19.936;2023-06-26T02:53:57;10.90;;;6.80;;
78856;SDS011;68207;50.078;19.936;2023-06-26T02:56:23;12.40;;;7.40;;
78856;SDS011;68207;50.078;19.936;2023-06-26T02:58:48;10.40;;;7.40;;
78856;SDS011;68207;50.078;19.936;2023-06-26T03:01:13;11.30;;;7.40;;
78856;SDS011;68207;50.078;19.936;2023-06-26T03:03:40;12.40;;;8.00;;
78856;SDS011;68207;50.078;19.936;2023-06-26T03:06:06;12.10;;;7.40;;
78856;SDS011;68207;50.078;19.936;2023-06-26T03:08:32;12.90;;;7.50;;
78856;SDS011;68207;50.078;19.936;2023-06-26T03:10:57;16.80;;;8.50;;
78856;SDS011;68207;50.078;19.936;2023-06-26T03:13:22;11.30;;;8.20;;
78856;SDS011;68207;50.078;19.936;2023-06-26T03:15:47;13.10;;;8.30;;
78856;SDS011;68207;50.078;19.936;2023-06-26T03:18:13;10.60;;;7.60;;
78856;SDS011;68207;50.078;19.936;2023-06-26T03:20:38;12.20;;;8.40;;
78856;SDS011;68207;50.078;19.936;2023-06-26T03:23:03;13.70;;;8.40;;
78856;SDS011;68207;50.078;19.936;2023-06-26T03:25:28;11.00;;;7.80;;
78856;SDS011;68207;50.078;19.936;2023-06-26T03:27:54;11.40;;;8.40;;
78856;SDS011;68207;50.078;19.936;2023-06-26T03:30:19;11.10;;;7.60;;
78856;SDS011;68207;50.078;19.936;2023-06-26T03:32:44;11.60;;;8.00;;
78856;SDS011;68207;50.078;19.936;2023-06-26T03:35:09;11.00;;;8.60;;
78856;SDS011;68207;50.078;19.936;2023-06-26T03:37:34;12.70;;;7.90;;
78856;SDS011;68207;50.078;19.936;2023-06-26T03:40:00;13.20;;;8.30;;
78856;SDS011;68207;50.078;19.936;2023-06-26T03:42:25;14.60;;;8.10;;
78856;SDS011;68207;50.078;19.936;2023-06-26T03:44:50;15.50;;;8.20;;
78856;SDS011;68207;50.078;19.936;2023-06-26T03:47:15;13.80;;;8.00;;
78856;SDS011;68207;50.078;19.936;2023-06-26T03:49:40;12.60;;;8.80;;
78856;SDS011;68207;50.078;19.936;2023-06-26T03:52:06;11.60;;;8.00;;
78856;SDS011;68207;50.078;19.936;2023-06-26T03:54:31;13.40;;;8.80;;
78856;SDS011;68207;50.078;19.936;2023-06-26T03:56:58;11.60;;;8.20;;
78856;SDS011;68207;50.078;19.936;2023-06-26T03:59:24;13.50;;;8.60;;
78856;SDS011;68207;50.078;19.936;2023-06-26T04:01:49;15.00;;;7.60;;
78856;SDS011;68207;50.078;19.936;2023-06-26T04:04:14;11.10;;;7.90;;
78856;SDS011;68207;50.078;19.936;2023-06-26T04:06:39;15.30;;;7.80;;
78856;SDS011;68207;50.078;19.936;2023-06-26T04:09:04;14.00;;;8.50;;
78856;SDS011;68207;50.078;19.936;2023-06-26T04:11:30;13.10;;;8.40;;
78856;SDS011;68207;50.078;19.936;2023-06-26T04:13:56;13.80;;;8.60;;
78856;SDS011;68207;50.078;19.936;2023-06-26T04:16:21;14.00;;;8.20;;
78856;SDS011;68207;50.078;19.936;2023-06-26T04:18:49;13.70;;;9.10;;
78856;SDS011;68207;50.078;19.936;2023-06-26T04:21:15;10.20;;;7.80;;
78856;SDS011;68207;50.078;19.936;2023-06-26T04:23:40;15.50;;;8.40;;
78856;SDS011;68207;50.078;19.936;2023-06-26T04:26:06;16.30;;;9.20;;
78856;SDS011;68207;50.078;19.936;2023-06-26T04:28:31;12.90;;;8.40;;
78856;SDS011;68207;50.078;19.936;2023-06-26T04:30:57;16.90;;;9.10;;
78856;SDS011;68207;50.078;19.936;2023-06-26T04:33:22;11.60;;;7.90;;
78856;SDS011;68207;50.078;19.936;2023-06-26T04:35:48;10.30;;;8.10;;
78856;SDS011;68207;50.078;19.936;2023-06-26T04:38:14;13.90;;;8.40;;
78856;SDS011;68207;50.078;19.936;2023-06-26T04:40:39;14.40;;;8.30;;
78856;SDS011;68207;50.078;19.936;2023-06-26T04:43:04;14.10;;;8.80;;
78856;SDS011;68207;50.078;19.936;2023-06-26T04:45:29;12.10;;;8.50;;
78856;SDS011;68207;50.078;19.936;2023-06-26T04:47:54;14.20;;;8.00;;
78856;SDS011;68207;50.078;19.936;2023-06-26T04:50:21;13.20;;;7.90;;
78856;SDS011;68207;50.078;19.936;2023-06-26T04:52:47;13.60;;;8.60;;
78856;SDS011;68207;50.078;19.936;2023-06-26T04:55:12;20.90;;;9.50;;
78856;SDS011;68207;50.078;19.936;2023-06-26T04:57:37;22.80;;;9.20;;
78856;SDS011;68207;50.078;19.936;2023-06-26T05:00:02;17.40;;;8.40;;
78856;SDS011;68207;50.078;19.936;2023-06-26T05:02:30;16.90;;;8.70;;
78856;SDS011;68207;50.078;19.936;2023-06-26T05:04:56;15.70;;;7.90;;
78856;SDS011;68207;50.078;19.936;2023-06-26T05:07:21;16.40;;;8.40;;
78856;SDS011;68207;50.078;19.936;2023-06-26T05:09:46;12.20;;;8.00;;
78856;SDS011;68207;50.078;19.936;2023-06-26T05:12:11;15.70;;;8.60;;
78856;SDS011;68207;50.078;19.936;2023-06-26T05:14:37;12.90;;;8.50;;
78856;SDS011;68207;50.078;19.936;2023-06-26T05:17:03;13.00;;;7.50;;
78856;SDS011;68207;50.078;19.936;2023-06-26T05:19:28;36.80;;;9.70;;
78856;SDS011;68207;50.078;19.936;2023-06-26T05:21:53;17.30;;;9.00;;
78856;SDS011;68207;50.078;19.936;2023-06-26T05:24:19;22.20;;;9.00;;
78856;SDS011;68207;50.078;19.936;2023-06-26T05:34:01;15.70;;;7.60;;
78856;SDS011;68207;50.078;19.936;2023-06-26T05:36:27;16.50;;;8.40;;
78856;SDS011;68207;50.078;19.936;2023-06-26T05:38:53;9.90;;;7.10;;
78856;SDS011;68207;50.078;19.936;2023-06-26T05:41:19;16.60;;;8.00;;
78856;SDS011;68207;50.078;19.936;2023-06-26T05:43:44;12.00;;;7.50;;
78856;SDS011;68207;50.078;19.936;2023-06-26T05:46:09;12.80;;;7.60;;
78856;SDS011;68207;50.078;19.936;2023-06-26T05:48:34;14.70;;;7.80;;
78856;SDS011;68207;50.078;19.936;2023-06-26T05:51:00;14.60;;;7.90;;
78856;SDS011;68207;50.078;19.936;2023-06-26T05:53:25;10.80;;;7.60;;
78856;SDS011;68207;50.078;19.936;2023-06-26T05:55:50;12.10;;;8.10;;
78856;SDS011;68207;50.078;19.936;2023-06-26T05:58:16;14.90;;;8.30;;
78856;SDS011;68207;50.078;19.936;2023-06-26T06:00:43;14.00;;;7.30;;
78856;SDS011;68207;50.078;19.936;2023-06-26T06:03:09;16.70;;;7.80;;
78856;SDS011;68207;50.078;19.936;2023-06-26T06:05:35;12.70;;;7.20;;
78856;SDS011;68207;50.078;19.936;2023-06-26T06:08:00;19.10;;;7.50;;
78856;SDS011;68207;50.078;19.936;2023-06-26T06:10:25;17.60;;;7.70;;
78856;SDS011;68207;50.078;19.936;2023-06-26T06:12:51;12.80;;;7.20;;
78856;SDS011;68207;50.078;19.936;2023-06-26T06:17:42;12.20;;;7.00;;
78856;SDS011;68207;50.078;19.936;2023-06-26T06:20:07;9.70;;;6.60;;
78856;SDS011;68207;50.078;19.936;2023-06-26T06:22:32;12.10;;;6.40;;
78856;SDS011;68207;50.078;19.936;2023-06-26T06:24:58;10.30;;;6.50;;
78856;SDS011;68207;50.078;19.936;2023-06-26T06:27:23;9.00;;;6.10;;
78856;SDS011;68207;50.078;19.936;2023-06-26T06:29:48;9.20;;;6.20;;
